createdAt,value
2018-12-31T00:02:46.170Z,6.20
2018-12-31T00:05:34.302Z,6.20
2018-12-31T00:08:17.103Z,6.20
2018-12-31T00:10:58.824Z,6.10
2018-12-31T00:13:27.668Z,6.30
2018-12-31T00:16:15.754Z,6.20
2018-12-31T00:19:03.898Z,6.30
2018-12-31T00:21:45.641Z,6.20
2018-12-31T00:24:33.654Z,6.20
2018-12-31T00:27:02.681Z,6.20
2018-12-31T00:29:31.434Z,6.20
2018-12-31T00:32:19.588Z,6.20
2018-12-31T00:35:01.557Z,6.20
2018-12-31T00:37:49.693Z,6.00
2018-12-31T00:40:32.546Z,6.10
2018-12-31T00:43:20.616Z,6.10
2018-12-31T00:45:49.367Z,6.10
2018-12-31T00:48:37.454Z,6.10
2018-12-31T00:51:25.480Z,6.10
2018-12-31T00:53:54.551Z,6.00
2018-12-31T00:56:42.648Z,6.10
2018-12-31T00:59:30.694Z,6.10
2018-12-31T01:02:13.001Z,6.10
2018-12-31T01:05:01.044Z,6.20
2018-12-31T01:07:44.709Z,6.20
2018-12-31T01:13:14.757Z,6.10
2018-12-31T01:16:02.881Z,6.10
2018-12-31T01:18:45.232Z,6.20
2018-12-31T01:21:33.324Z,6.10
2018-12-31T01:24:22.040Z,6.10
2018-12-31T01:27:10.114Z,6.10
2018-12-31T01:29:39.498Z,6.00
2018-12-31T01:32:27.526Z,6.00
2018-12-31T01:35:10.476Z,6.10
2018-12-31T01:37:58.618Z,6.00
2018-12-31T01:40:27.297Z,6.00
2018-12-31T01:42:56.123Z,6.10
2018-12-31T01:45:44.166Z,6.10
2018-12-31T01:48:26.868Z,6.10
2018-12-31T01:51:11.404Z,6.00
2018-12-31T01:53:59.697Z,6.00
2018-12-31T01:56:41.623Z,6.10
2018-12-31T01:59:29.882Z,6.10
2018-12-31T02:02:11.265Z,6.10
2018-12-31T02:04:59.407Z,6.10
2018-12-31T02:07:28.083Z,6.10
2018-12-31T02:09:56.774Z,6.00
2018-12-31T02:12:25.444Z,6.00
2018-12-31T02:14:54.727Z,6.10
2018-12-31T02:17:23.673Z,6.10
2018-12-31T02:19:52.804Z,6.30
2018-12-31T02:22:41.179Z,6.30
2018-12-31T02:25:24.750Z,6.40
2018-12-31T02:28:06.885Z,6.20
2018-12-31T02:30:55.266Z,6.20
2018-12-31T02:33:40.346Z,6.30
2018-12-31T02:36:28.919Z,6.20
2018-12-31T02:38:57.633Z,6.30
2018-12-31T02:41:45.686Z,6.30
2018-12-31T02:44:33.730Z,6.30
2018-12-31T02:47:02.520Z,6.30
2018-12-31T02:49:50.619Z,6.30
2018-12-31T02:52:38.625Z,6.20
2018-12-31T02:55:20.809Z,6.20
2018-12-31T02:58:10.420Z,6.20
2018-12-31T03:00:39.247Z,6.30
2018-12-31T03:03:08.005Z,6.30
2018-12-31T03:05:56.094Z,6.40
2018-12-31T03:08:44.206Z,6.30
2018-12-31T03:11:26.919Z,6.50
2018-12-31T03:14:15.085Z,6.50
2018-12-31T03:16:43.824Z,6.40
2018-12-31T03:19:32.094Z,6.40
2018-12-31T03:22:20.241Z,6.50
2018-12-31T03:24:49.041Z,6.50
2018-12-31T03:27:17.792Z,6.50
2018-12-31T03:29:46.877Z,6.50
2018-12-31T03:32:34.946Z,6.50
2018-12-31T03:35:16.806Z,6.50
2018-12-31T03:37:45.602Z,6.50
2018-12-31T03:40:33.736Z,6.60
2018-12-31T03:43:15.409Z,6.50
2018-12-31T03:46:03.488Z,6.60
2018-12-31T03:48:32.325Z,6.60
2018-12-31T03:51:14.053Z,6.50
2018-12-31T03:54:02.051Z,6.50
2018-12-31T03:56:44.439Z,6.40
2018-12-31T03:59:32.378Z,6.40
2018-12-31T04:02:20.420Z,6.50
2018-12-31T04:05:03.430Z,6.50
2018-12-31T04:07:32.339Z,6.50
2018-12-31T04:10:20.472Z,6.50
2018-12-31T04:13:08.641Z,6.50
2018-12-31T04:15:54.169Z,6.40
2018-12-31T04:18:36.219Z,6.50
2018-12-31T04:21:24.313Z,6.40
2018-12-31T04:24:05.954Z,6.40
2018-12-31T04:26:54.025Z,6.30
2018-12-31T04:29:36.243Z,6.50
2018-12-31T04:32:24.340Z,6.50
2018-12-31T04:35:12.412Z,6.50
2018-12-31T04:38:00.472Z,6.50
2018-12-31T04:40:29.634Z,6.60
2018-12-31T04:43:17.695Z,6.60
2018-12-31T04:45:59.265Z,6.50
2018-12-31T04:48:41.056Z,6.40
2018-12-31T04:51:29.136Z,6.40
2018-12-31T04:53:58.131Z,6.40
2018-12-31T04:56:46.186Z,6.40
2018-12-31T04:59:14.942Z,6.40
2018-12-31T05:02:02.956Z,6.50
2018-12-31T05:04:50.980Z,6.40
2018-12-31T05:07:19.871Z,6.40
2018-12-31T05:10:07.949Z,6.40
2018-12-31T05:12:50.823Z,6.40
2018-12-31T05:15:32.711Z,6.50
2018-12-31T05:18:20.730Z,6.50
2018-12-31T05:21:08.756Z,6.70
2018-12-31T05:23:37.700Z,6.70
2018-12-31T05:26:25.755Z,6.70
2018-12-31T05:29:08.170Z,6.70
2018-12-31T05:31:36.965Z,6.70
2018-12-31T05:34:05.778Z,6.70
2018-12-31T05:36:53.865Z,6.70
2018-12-31T05:39:24.316Z,6.70
2018-12-31T05:42:12.392Z,6.70
2018-12-31T05:44:54.104Z,6.60
2018-12-31T05:47:42.189Z,6.70
2018-12-31T05:50:24.198Z,6.60
2018-12-31T05:53:12.368Z,6.70
2018-12-31T05:55:58.022Z,6.70
2018-12-31T05:58:26.964Z,6.60
2018-12-31T06:01:15.050Z,6.70
2018-12-31T06:04:03.121Z,6.80
2018-12-31T06:06:31.884Z,6.80
2018-12-31T06:09:00.704Z,6.80
2018-12-31T06:11:48.905Z,6.70
2018-12-31T06:14:37.003Z,6.70
2018-12-31T06:17:18.681Z,6.60
2018-12-31T06:20:06.891Z,6.70
2018-12-31T06:22:48.662Z,6.70
2018-12-31T06:25:36.776Z,6.70
2018-12-31T06:28:18.290Z,6.70
2018-12-31T06:31:06.377Z,6.80
2018-12-31T06:33:47.974Z,6.70
2018-12-31T06:36:36.723Z,6.70
2018-12-31T06:39:19.508Z,6.80
2018-12-31T06:42:07.541Z,6.70
2018-12-31T06:44:49.234Z,6.80
2018-12-31T06:47:18.066Z,6.70
2018-12-31T06:50:06.126Z,6.60
2018-12-31T06:52:54.126Z,6.60
2018-12-31T06:55:37.563Z,6.80
2018-12-31T06:58:25.835Z,6.80
2018-12-31T07:01:08.342Z,6.70
2018-12-31T07:03:56.431Z,6.70
2018-12-31T07:06:40.375Z,6.70
2018-12-31T07:09:28.416Z,6.80
2018-12-31T07:12:09.719Z,6.60
2018-12-31T07:14:38.455Z,6.60
2018-12-31T07:17:07.265Z,6.60
2018-12-31T07:19:35.986Z,6.60
2018-12-31T07:22:04.753Z,6.70
2018-12-31T07:24:33.491Z,6.70
2018-12-31T07:27:02.190Z,6.70
2018-12-31T07:29:50.109Z,6.60
2018-12-31T07:32:38.169Z,6.60
2018-12-31T07:35:19.506Z,6.60
2018-12-31T07:37:48.324Z,6.60
2018-12-31T07:40:36.368Z,6.50
2018-12-31T07:43:24.382Z,6.60
2018-12-31T07:46:12.349Z,6.60
2018-12-31T07:48:54.293Z,6.60
2018-12-31T07:51:42.326Z,6.60
2018-12-31T07:54:24.387Z,6.60
2018-12-31T07:57:12.412Z,6.60
2018-12-31T07:59:54.369Z,6.60
2018-12-31T08:02:42.340Z,6.60
2018-12-31T08:05:24.216Z,6.70
2018-12-31T08:08:12.177Z,6.60
2018-12-31T08:10:54.610Z,6.70
2018-12-31T08:13:42.598Z,6.70
2018-12-31T08:16:23.717Z,6.60
2018-12-31T08:19:11.647Z,6.70
2018-12-31T08:21:53.713Z,6.70
2018-12-31T08:24:41.655Z,6.80
2018-12-31T08:27:23.549Z,6.70
2018-12-31T08:30:11.487Z,6.70
2018-12-31T08:32:52.870Z,6.60
2018-12-31T08:35:40.915Z,6.70
2018-12-31T08:38:22.654Z,6.80
2018-12-31T08:41:03.839Z,6.80
2018-12-31T08:43:51.853Z,6.80
2018-12-31T08:46:39.880Z,6.80
2018-12-31T08:49:21.733Z,6.80
2018-12-31T08:52:04.390Z,6.90
2018-12-31T08:54:46.356Z,6.80
2018-12-31T08:57:34.340Z,6.90
2018-12-31T09:00:16.273Z,6.90
2018-12-31T09:03:04.397Z,6.90
2018-12-31T09:05:46.221Z,6.80
2018-12-31T09:08:34.862Z,6.80
2018-12-31T09:11:17.123Z,6.80
2018-12-31T09:14:05.093Z,6.90
2018-12-31T09:16:47.125Z,6.90
2018-12-31T09:19:35.126Z,6.90
2018-12-31T09:27:38.603Z,7.10
2018-12-31T09:30:26.516Z,7.00
2018-12-31T09:33:08.334Z,6.90
2018-12-31T09:35:56.476Z,6.90
2018-12-31T09:38:38.113Z,6.80
2018-12-31T09:41:26.118Z,6.90
2018-12-31T09:44:07.697Z,6.90
2018-12-31T09:46:55.756Z,7.00
2018-12-31T09:49:37.007Z,6.90
2018-12-31T09:52:18.289Z,6.90
2018-12-31T09:55:06.339Z,7.00
2018-12-31T09:57:48.226Z,7.10
2018-12-31T10:00:36.449Z,7.20
2018-12-31T10:03:18.425Z,7.20
2018-12-31T10:06:06.465Z,7.10
2018-12-31T10:08:49.360Z,7.20
2018-12-31T10:11:37.575Z,7.20
2018-12-31T10:14:18.940Z,7.20
2018-12-31T10:17:07.052Z,7.20
2018-12-31T10:19:48.542Z,7.20
2018-12-31T10:22:36.662Z,7.20
2018-12-31T10:25:18.457Z,7.10
2018-12-31T10:28:06.574Z,7.00
2018-12-31T10:30:47.940Z,7.00
2018-12-31T10:33:35.959Z,7.00
2018-12-31T10:36:17.376Z,7.00
2018-12-31T10:38:51.097Z,7.00
2018-12-31T10:44:00.866Z,7.20
2018-12-31T10:46:48.986Z,7.30
2018-12-31T10:49:30.955Z,7.20
2018-12-31T10:52:14.115Z,7.20
2018-12-31T10:54:55.830Z,7.30
2018-12-31T10:57:24.500Z,7.30
2018-12-31T10:59:53.237Z,7.30
2018-12-31T11:02:41.343Z,7.30
2018-12-31T11:05:22.508Z,7.30
2018-12-31T11:07:51.134Z,7.30
2018-12-31T11:10:39.172Z,7.30
2018-12-31T11:13:08.062Z,7.20
2018-12-31T11:15:56.035Z,7.20
2018-12-31T11:18:38.269Z,7.20
2018-12-31T11:21:07.086Z,7.10
2018-12-31T11:23:55.879Z,7.20
2018-12-31T11:26:38.424Z,7.30
2018-12-31T11:29:20.387Z,7.30
2018-12-31T11:32:08.407Z,7.30
2018-12-31T11:34:49.946Z,7.50
2018-12-31T11:37:38.127Z,7.30
2018-12-31T11:40:19.950Z,7.40
2018-12-31T11:43:08.101Z,7.40
2018-12-31T11:45:50.302Z,7.40
2018-12-31T11:48:38.634Z,7.40
2018-12-31T11:51:07.450Z,7.40
2018-12-31T11:54:10.780Z,7.50
2018-12-31T11:56:40.383Z,7.50
2018-12-31T11:59:23.375Z,7.50
2018-12-31T12:02:05.628Z,7.60
2018-12-31T12:04:53.730Z,7.70
2018-12-31T12:07:22.518Z,7.50
2018-12-31T12:09:51.873Z,7.50
2018-12-31T12:12:40.471Z,7.50
2018-12-31T12:15:28.487Z,7.60
2018-12-31T12:18:11.940Z,7.60
2018-12-31T12:20:59.941Z,7.60
2018-12-31T12:23:28.847Z,7.60
2018-12-31T12:25:57.571Z,7.70
2018-12-31T12:28:45.603Z,7.80
2018-12-31T12:31:14.861Z,7.80
2018-12-31T12:33:43.652Z,7.70
2018-12-31T12:36:31.945Z,7.70
2018-12-31T12:39:00.709Z,7.70
2018-12-31T12:41:48.781Z,7.70
2018-12-31T12:44:17.832Z,7.80
2018-12-31T12:47:05.945Z,7.70
2018-12-31T12:49:49.168Z,7.80
2018-12-31T12:52:37.202Z,7.80
2018-12-31T12:55:19.679Z,7.70
2018-12-31T13:00:50.535Z,7.70
2018-12-31T13:03:32.243Z,7.60
2018-12-31T13:06:20.418Z,7.70
2018-12-31T13:09:05.372Z,7.80
2018-12-31T13:11:34.225Z,7.80
2018-12-31T13:14:22.478Z,7.80
2018-12-31T13:17:04.547Z,7.90
2018-12-31T13:19:52.506Z,7.80
2018-12-31T13:22:21.251Z,7.80
2018-12-31T13:25:09.276Z,7.90
2018-12-31T13:27:51.120Z,8.00
2018-12-31T13:30:19.869Z,7.90
2018-12-31T13:32:48.712Z,7.90
2018-12-31T13:35:36.844Z,7.90
2018-12-31T13:38:25.490Z,7.90
2018-12-31T13:41:08.921Z,7.90
2018-12-31T13:43:57.071Z,7.90
2018-12-31T13:46:38.449Z,8.00
2018-12-31T13:49:26.574Z,7.90
2018-12-31T13:51:55.287Z,8.00
2018-12-31T13:54:44.279Z,8.00
2018-12-31T13:57:32.370Z,8.00
2018-12-31T14:00:15.025Z,8.00
2018-12-31T14:03:03.067Z,7.90
2018-12-31T14:05:45.704Z,7.90
2018-12-31T14:08:34.105Z,7.90
2018-12-31T14:11:16.051Z,7.90
2018-12-31T14:13:45.759Z,7.90
2018-12-31T14:16:33.975Z,7.90
2018-12-31T14:19:15.359Z,7.90
2018-12-31T14:22:03.445Z,8.00
2018-12-31T14:24:59.347Z,8.00
2018-12-31T14:27:47.512Z,8.00
2018-12-31T14:30:16.988Z,7.90
2018-12-31T14:35:37.139Z,7.80
2018-12-31T14:38:19.096Z,7.80
2018-12-31T14:40:47.919Z,7.80
2018-12-31T14:43:36.318Z,7.70
2018-12-31T14:46:18.417Z,7.80
2018-12-31T14:48:47.594Z,7.80
2018-12-31T14:51:35.699Z,7.90
2018-12-31T14:54:04.464Z,7.90
2018-12-31T14:56:33.260Z,7.80
2018-12-31T14:59:21.660Z,7.80
2018-12-31T15:02:05.842Z,7.70
2018-12-31T15:04:54.073Z,7.80
2018-12-31T15:07:35.885Z,7.80
2018-12-31T15:10:17.830Z,7.80
2018-12-31T15:12:46.906Z,7.80
2018-12-31T15:15:15.701Z,7.80
2018-12-31T15:18:03.922Z,7.90
2018-12-31T15:20:32.813Z,7.80
2018-12-31T15:23:20.981Z,7.80
2018-12-31T15:26:02.870Z,7.90
2018-12-31T15:28:51.258Z,7.80
2018-12-31T15:31:20.229Z,7.80
2018-12-31T15:34:08.707Z,7.80
2018-12-31T15:36:50.959Z,7.80
2018-12-31T15:39:20.328Z,7.80
2018-12-31T15:42:08.854Z,7.90
2018-12-31T15:44:38.034Z,7.90
2018-12-31T15:47:26.250Z,7.80
2018-12-31T15:49:55.156Z,7.70
2018-12-31T15:52:44.874Z,7.80
2018-12-31T15:55:32.964Z,7.90
2018-12-31T15:58:16.684Z,7.80
2018-12-31T16:01:04.749Z,7.80
2018-12-31T16:03:33.764Z,7.80
2018-12-31T16:06:21.885Z,7.80
2018-12-31T16:09:10.272Z,7.80
2018-12-31T16:11:53.099Z,7.70
2018-12-31T16:14:21.986Z,7.80
2018-12-31T16:17:10.485Z,7.70
2018-12-31T16:19:52.734Z,7.60
2018-12-31T16:22:41.025Z,7.70
2018-12-31T16:25:24.280Z,7.70
2018-12-31T16:28:12.398Z,7.60
2018-12-31T16:30:54.487Z,7.60
2018-12-31T16:33:42.707Z,7.70
2018-12-31T16:36:25.319Z,7.70
2018-12-31T16:39:13.705Z,7.60
2018-12-31T16:41:55.845Z,7.60
2018-12-31T16:44:44.570Z,7.70
2018-12-31T16:50:10.476Z,7.70
2018-12-31T16:52:53.866Z,7.70
2018-12-31T16:55:22.727Z,7.60
2018-12-31T16:58:10.772Z,7.60
2018-12-31T17:00:53.321Z,7.60
2018-12-31T17:03:40.969Z,7.60
2018-12-31T17:06:29.395Z,7.60
2018-12-31T17:09:12.398Z,7.60
2018-12-31T17:12:00.590Z,7.60
2018-12-31T17:14:42.732Z,7.70
2018-12-31T17:17:31.170Z,7.70
2018-12-31T17:20:14.539Z,7.60
2018-12-31T17:23:04.268Z,7.60
2018-12-31T17:25:33.170Z,7.50
2018-12-31T17:28:02.308Z,7.60
2018-12-31T17:30:31.200Z,7.60
2018-12-31T17:33:01.423Z,7.70
2018-12-31T17:35:30.464Z,7.70
2018-12-31T17:37:59.197Z,7.80
2018-12-31T17:40:47.232Z,7.70
2018-12-31T17:43:35.577Z,7.80
2018-12-31T17:46:04.815Z,7.70
2018-12-31T17:48:33.856Z,7.70
2018-12-31T17:51:02.726Z,7.70
2018-12-31T17:53:50.804Z,7.70
2018-12-31T17:56:32.771Z,7.80
2018-12-31T17:59:21.224Z,7.90
2018-12-31T18:02:09.313Z,7.90
2018-12-31T18:04:38.329Z,7.80
2018-12-31T18:07:27.246Z,7.80
2018-12-31T18:10:09.218Z,7.80
2018-12-31T18:12:57.583Z,7.80
2018-12-31T18:15:43.730Z,7.80
2018-12-31T18:18:32.163Z,7.80
2018-12-31T18:21:13.780Z,7.80
2018-12-31T18:24:01.805Z,7.70
2018-12-31T18:26:44.315Z,7.60
2018-12-31T18:29:32.448Z,7.60
2018-12-31T18:32:15.627Z,7.60
2018-12-31T18:35:03.789Z,7.70
2018-12-31T18:37:47.306Z,7.70
2018-12-31T18:40:35.326Z,7.60
2018-12-31T18:43:19.418Z,7.70
2018-12-31T18:46:07.725Z,7.70
2018-12-31T18:48:36.754Z,7.70
2018-12-31T18:51:24.981Z,7.70
2018-12-31T18:54:07.292Z,7.70
2018-12-31T18:56:55.603Z,7.70
2018-12-31T18:59:38.672Z,7.60
2018-12-31T19:02:21.185Z,7.70
2018-12-31T19:05:11.165Z,7.70
2018-12-31T19:07:53.087Z,7.60
2018-12-31T19:10:41.107Z,7.70
2018-12-31T19:13:23.586Z,7.80
2018-12-31T19:15:52.317Z,7.80
2018-12-31T19:18:40.517Z,7.80
2018-12-31T19:21:22.156Z,7.80
2018-12-31T19:23:51.467Z,7.70
2018-12-31T19:26:34.669Z,7.80
2018-12-31T19:29:16.749Z,7.90
2018-12-31T19:32:05.059Z,7.80
2018-12-31T19:34:47.047Z,7.80
2018-12-31T19:37:35.064Z,7.90
2018-12-31T19:40:18.993Z,7.90
2018-12-31T19:43:07.003Z,7.80
2018-12-31T19:45:49.145Z,7.80
2018-12-31T19:48:37.534Z,7.80
2018-12-31T19:51:19.757Z,7.90
2018-12-31T19:54:02.773Z,8.00
2018-12-31T19:56:50.958Z,7.90
2018-12-31T19:59:34.330Z,7.60
2018-12-31T20:02:22.898Z,7.70
2018-12-31T20:05:04.682Z,7.80
2018-12-31T20:07:52.856Z,7.90
2018-12-31T20:10:34.949Z,7.90
2018-12-31T20:13:23.354Z,7.80
2018-12-31T20:16:05.768Z,7.70
2018-12-31T20:18:54.007Z,7.70
2018-12-31T20:21:37.462Z,7.70
2018-12-31T20:24:25.533Z,7.80
2018-12-31T20:27:07.916Z,7.80
2018-12-31T20:29:36.764Z,7.70
2018-12-31T20:32:24.921Z,7.70
2018-12-31T20:35:07.010Z,7.70
2018-12-31T20:37:55.172Z,7.60
2018-12-31T20:40:36.883Z,7.60
2018-12-31T20:43:25.230Z,7.60
2018-12-31T20:46:08.700Z,7.60
2018-12-31T20:48:50.118Z,7.50
2018-12-31T20:51:38.186Z,7.60
2018-12-31T20:54:19.926Z,7.60
2018-12-31T20:57:08.846Z,7.60
2018-12-31T20:59:56.917Z,7.70
2018-12-31T21:02:40.799Z,7.70
2018-12-31T21:05:25.297Z,7.70
2018-12-31T21:08:14.475Z,7.80
2018-12-31T21:10:57.371Z,7.80
2018-12-31T21:13:26.619Z,7.70
2018-12-31T21:16:14.610Z,7.70
2018-12-31T21:18:56.985Z,7.70
2018-12-31T21:21:45.104Z,7.50
2018-12-31T21:24:27.260Z,7.70
2018-12-31T21:27:15.394Z,7.70
2018-12-31T21:29:45.670Z,7.60
2018-12-31T21:32:14.587Z,7.60
2018-12-31T21:35:02.853Z,7.60
2018-12-31T21:37:31.668Z,7.40
2018-12-31T21:40:00.522Z,7.50
2018-12-31T21:42:29.357Z,7.60
2018-12-31T21:45:00.184Z,7.60
2018-12-31T21:47:28.979Z,7.60
2018-12-31T21:49:57.730Z,7.60
2018-12-31T21:52:47.739Z,7.60
2018-12-31T21:55:29.947Z,7.50
2018-12-31T21:58:18.050Z,7.50
2018-12-31T22:01:00.937Z,7.50
2018-12-31T22:03:49.245Z,7.40
2018-12-31T22:06:32.203Z,7.50
2018-12-31T22:09:16.256Z,7.50
2018-12-31T22:11:58.923Z,7.50
2018-12-31T22:14:47.134Z,7.50
2018-12-31T22:17:16.011Z,7.60
2018-12-31T22:20:05.558Z,7.60
2018-12-31T22:22:53.899Z,7.50
2018-12-31T22:25:22.757Z,7.60
2018-12-31T22:28:10.838Z,7.60
2018-12-31T22:30:58.865Z,7.70
2018-12-31T22:33:41.262Z,7.60
2018-12-31T22:36:10.146Z,7.70
2018-12-31T22:38:39.024Z,7.70
2018-12-31T22:41:09.681Z,7.60
2018-12-31T22:43:57.841Z,7.70
2018-12-31T22:46:46.107Z,7.60
2018-12-31T22:49:27.922Z,7.70
2018-12-31T22:51:56.834Z,7.70
2018-12-31T22:54:45.147Z,7.60
2018-12-31T22:57:28.078Z,7.60
2018-12-31T22:59:56.817Z,7.70
2018-12-31T23:02:45.229Z,7.80
2018-12-31T23:05:31.263Z,7.70
2018-12-31T23:08:19.477Z,7.70
2018-12-31T23:11:01.359Z,7.60
2018-12-31T23:13:49.517Z,7.70
2018-12-31T23:16:31.717Z,7.80
2018-12-31T23:19:20.185Z,7.90
2018-12-31T23:24:51.155Z,7.80
2018-12-31T23:27:39.509Z,7.80
2018-12-31T23:30:27.745Z,7.80
2018-12-31T23:33:10.588Z,7.70
2018-12-31T23:35:51.939Z,7.80
2018-12-31T23:38:40.208Z,7.80
2018-12-31T23:41:09.117Z,7.90
2018-12-31T23:43:57.319Z,7.90
2018-12-31T23:46:45.469Z,7.90
2018-12-31T23:49:33.567Z,7.80
2018-12-31T23:52:02.438Z,7.80
2018-12-31T23:54:50.644Z,7.90
2018-12-31T23:57:19.467Z,8.00
